Welcome to the New NWS' Forecast!
Most changes are behind the scenes, but click here for differences you might notice.

Terminal Aerodrome Forecast (TAF)

Issued by National Weather Service (NWS)

                            
000
FTUS42 KKEY 170134 AAC
TAFMTH
TAF AMD
KMTH 170134Z 1702/1724 10008G16KT P6SM VCSH SCT025
      TEMPO 1702/1705 3SM SHRA BKN025
     FM171300 10010G18KT P6SM SCT025=